sensor_id;sensor_type;location;lat;lon;timestamp;P1;durP1;ratioP1;P2;durP2;ratioP2
17570;SDS011;8903;52.220;20.978;2023-04-01T00:02:12;26.27;;;20.70;;
17570;SDS011;8903;52.220;20.978;2023-04-01T00:04:39;30.87;;;21.50;;
17570;SDS011;8903;52.220;20.978;2023-04-01T00:07:07;27.77;;;21.53;;
17570;SDS011;8903;52.220;20.978;2023-04-01T00:09:34;30.20;;;22.00;;
17570;SDS011;8903;52.220;20.978;2023-04-01T00:12:01;32.53;;;21.30;;
17570;SDS011;8903;52.220;20.978;2023-04-01T00:14:29;27.33;;;21.93;;
17570;SDS011;8903;52.220;20.978;2023-04-01T00:16:56;29.07;;;22.50;;
17570;SDS011;8903;52.220;20.978;2023-04-01T00:19:23;26.80;;;21.50;;
17570;SDS011;8903;52.220;20.978;2023-04-01T00:21:50;30.43;;;23.67;;
17570;SDS011;8903;52.220;20.978;2023-04-01T00:24:18;29.57;;;21.97;;
17570;SDS011;8903;52.220;20.978;2023-04-01T00:26:45;40.20;;;22.50;;
17570;SDS011;8903;52.220;20.978;2023-04-01T00:29:13;33.90;;;23.87;;
17570;SDS011;8903;52.220;20.978;2023-04-01T00:31:40;30.10;;;23.17;;
17570;SDS011;8903;52.220;20.978;2023-04-01T00:34:07;31.57;;;24.50;;
17570;SDS011;8903;52.220;20.978;2023-04-01T00:36:34;31.53;;;24.27;;
17570;SDS011;8903;52.220;20.978;2023-04-01T00:39:01;34.00;;;24.70;;
17570;SDS011;8903;52.220;20.978;2023-04-01T00:41:29;30.03;;;23.03;;
17570;SDS011;8903;52.220;20.978;2023-04-01T00:44:12;28.40;;;22.67;;
17570;SDS011;8903;52.220;20.978;2023-04-01T00:46:43;34.60;;;26.00;;
17570;SDS011;8903;52.220;20.978;2023-04-01T00:49:10;28.23;;;23.77;;
17570;SDS011;8903;52.220;20.978;2023-04-01T00:51:37;31.20;;;22.90;;
17570;SDS011;8903;52.220;20.978;2023-04-01T00:54:07;38.33;;;25.63;;
17570;SDS011;8903;52.220;20.978;2023-04-01T00:56:38;34.00;;;25.23;;
17570;SDS011;8903;52.220;20.978;2023-04-01T00:59:10;32.73;;;24.40;;
17570;SDS011;8903;52.220;20.978;2023-04-01T01:01:39;35.77;;;24.37;;
17570;SDS011;8903;52.220;20.978;2023-04-01T01:04:07;34.00;;;23.50;;
17570;SDS011;8903;52.220;20.978;2023-04-01T01:06:47;36.03;;;24.87;;
17570;SDS011;8903;52.220;20.978;2023-04-01T01:09:25;43.00;;;26.30;;
17570;SDS011;8903;52.220;20.978;2023-04-01T01:12:00;33.93;;;25.23;;
17570;SDS011;8903;52.220;20.978;2023-04-01T01:14:36;38.03;;;27.57;;
17570;SDS011;8903;52.220;20.978;2023-04-01T01:17:13;36.17;;;25.97;;
17570;SDS011;8903;52.220;20.978;2023-04-01T01:19:50;34.20;;;26.10;;
17570;SDS011;8903;52.220;20.978;2023-04-01T01:22:33;33.30;;;25.70;;
17570;SDS011;8903;52.220;20.978;2023-04-01T01:25:15;35.87;;;25.30;;
17570;SDS011;8903;52.220;20.978;2023-04-01T01:27:49;36.03;;;27.00;;
17570;SDS011;8903;52.220;20.978;2023-04-01T01:30:33;35.17;;;25.27;;
17570;SDS011;8903;52.220;20.978;2023-04-01T01:33:06;37.20;;;26.47;;
17570;SDS011;8903;52.220;20.978;2023-04-01T01:35:48;39.57;;;26.80;;
17570;SDS011;8903;52.220;20.978;2023-04-01T01:38:19;38.10;;;25.80;;
17570;SDS011;8903;52.220;20.978;2023-04-01T01:40:55;40.43;;;27.37;;
17570;SDS011;8903;52.220;20.978;2023-04-01T01:43:24;39.47;;;28.37;;
17570;SDS011;8903;52.220;20.978;2023-04-01T01:45:57;39.53;;;27.60;;
17570;SDS011;8903;52.220;20.978;2023-04-01T01:48:28;38.40;;;26.57;;
17570;SDS011;8903;52.220;20.978;2023-04-01T01:50:59;35.87;;;27.97;;
17570;SDS011;8903;52.220;20.978;2023-04-01T01:53:26;42.13;;;28.90;;
17570;SDS011;8903;52.220;20.978;2023-04-01T01:55:53;43.13;;;28.10;;
17570;SDS011;8903;52.220;20.978;2023-04-01T01:58:22;38.87;;;29.00;;
17570;SDS011;8903;52.220;20.978;2023-04-01T02:00:52;43.00;;;27.67;;
17570;SDS011;8903;52.220;20.978;2023-04-01T02:03:23;40.90;;;27.97;;
17570;SDS011;8903;52.220;20.978;2023-04-01T02:05:53;36.73;;;28.17;;
17570;SDS011;8903;52.220;20.978;2023-04-01T02:08:24;40.10;;;28.80;;
17570;SDS011;8903;52.220;20.978;2023-04-01T02:10:55;35.40;;;28.20;;
17570;SDS011;8903;52.220;20.978;2023-04-01T02:13:31;40.20;;;29.73;;
17570;SDS011;8903;52.220;20.978;2023-04-01T02:16:06;45.33;;;30.90;;
17570;SDS011;8903;52.220;20.978;2023-04-01T02:18:37;43.57;;;31.50;;
17570;SDS011;8903;52.220;20.978;2023-04-01T02:21:05;43.10;;;31.97;;
17570;SDS011;8903;52.220;20.978;2023-04-01T02:23:36;45.10;;;30.47;;
17570;SDS011;8903;52.220;20.978;2023-04-01T02:26:05;38.80;;;28.67;;
17570;SDS011;8903;52.220;20.978;2023-04-01T02:28:34;46.90;;;32.93;;
17570;SDS011;8903;52.220;20.978;2023-04-01T02:31:04;43.63;;;30.47;;
17570;SDS011;8903;52.220;20.978;2023-04-01T02:33:33;41.43;;;30.50;;
17570;SDS011;8903;52.220;20.978;2023-04-01T02:36:00;43.97;;;30.57;;
17570;SDS011;8903;52.220;20.978;2023-04-01T02:38:27;42.80;;;31.90;;
17570;SDS011;8903;52.220;20.978;2023-04-01T02:40:58;42.23;;;29.77;;
17570;SDS011;8903;52.220;20.978;2023-04-01T02:43:26;45.40;;;32.03;;
17570;SDS011;8903;52.220;20.978;2023-04-01T02:45:55;37.63;;;29.07;;
17570;SDS011;8903;52.220;20.978;2023-04-01T02:48:22;42.73;;;31.57;;
17570;SDS011;8903;52.220;20.978;2023-04-01T02:50:49;42.73;;;30.40;;
17570;SDS011;8903;52.220;20.978;2023-04-01T02:53:16;42.47;;;33.13;;
17570;SDS011;8903;52.220;20.978;2023-04-01T02:55:43;46.00;;;33.47;;
17570;SDS011;8903;52.220;20.978;2023-04-01T02:58:12;45.00;;;33.07;;
17570;SDS011;8903;52.220;20.978;2023-04-01T03:00:39;42.20;;;30.40;;
17570;SDS011;8903;52.220;20.978;2023-04-01T03:03:06;47.13;;;32.60;;
17570;SDS011;8903;52.220;20.978;2023-04-01T03:05:33;46.80;;;32.77;;
17570;SDS011;8903;52.220;20.978;2023-04-01T03:08:00;50.03;;;33.20;;
17570;SDS011;8903;52.220;20.978;2023-04-01T03:10:27;46.60;;;33.40;;
17570;SDS011;8903;52.220;20.978;2023-04-01T03:12:54;49.30;;;34.40;;
17570;SDS011;8903;52.220;20.978;2023-04-01T03:15:23;48.93;;;34.10;;
17570;SDS011;8903;52.220;20.978;2023-04-01T03:17:50;47.53;;;33.93;;
17570;SDS011;8903;52.220;20.978;2023-04-01T03:20:17;47.60;;;34.23;;
17570;SDS011;8903;52.220;20.978;2023-04-01T03:22:44;46.87;;;34.00;;
17570;SDS011;8903;52.220;20.978;2023-04-01T03:25:12;52.00;;;34.10;;
17570;SDS011;8903;52.220;20.978;2023-04-01T03:27:39;50.00;;;33.03;;
17570;SDS011;8903;52.220;20.978;2023-04-01T03:30:07;45.83;;;33.00;;
17570;SDS011;8903;52.220;20.978;2023-04-01T03:32:45;46.60;;;31.93;;
17570;SDS011;8903;52.220;20.978;2023-04-01T03:35:12;50.07;;;33.27;;
17570;SDS011;8903;52.220;20.978;2023-04-01T03:37:39;46.00;;;32.70;;
17570;SDS011;8903;52.220;20.978;2023-04-01T03:40:07;44.30;;;32.07;;
17570;SDS011;8903;52.220;20.978;2023-04-01T03:42:34;47.60;;;32.60;;
17570;SDS011;8903;52.220;20.978;2023-04-01T03:45:02;47.23;;;31.67;;
17570;SDS011;8903;52.220;20.978;2023-04-01T03:47:30;41.90;;;30.43;;
17570;SDS011;8903;52.220;20.978;2023-04-01T03:49:59;45.27;;;32.30;;
17570;SDS011;8903;52.220;20.978;2023-04-01T03:52:26;41.73;;;30.53;;
17570;SDS011;8903;52.220;20.978;2023-04-01T03:54:53;39.30;;;30.10;;
17570;SDS011;8903;52.220;20.978;2023-04-01T03:57:20;40.30;;;29.43;;
17570;SDS011;8903;52.220;20.978;2023-04-01T03:59:47;40.10;;;30.10;;
17570;SDS011;8903;52.220;20.978;2023-04-01T04:02:14;36.70;;;28.30;;
17570;SDS011;8903;52.220;20.978;2023-04-01T04:04:42;38.87;;;29.37;;
17570;SDS011;8903;52.220;20.978;2023-04-01T04:07:10;40.60;;;29.07;;
17570;SDS011;8903;52.220;20.978;2023-04-01T04:10:00;40.73;;;29.90;;
17570;SDS011;8903;52.220;20.978;2023-04-01T04:12:27;36.00;;;28.30;;
17570;SDS011;8903;52.220;20.978;2023-04-01T04:14:54;37.00;;;27.67;;
17570;SDS011;8903;52.220;20.978;2023-04-01T04:17:22;37.67;;;26.77;;
17570;SDS011;8903;52.220;20.978;2023-04-01T04:19:49;39.60;;;26.00;;
17570;SDS011;8903;52.220;20.978;2023-04-01T04:22:18;37.40;;;27.60;;
17570;SDS011;8903;52.220;20.978;2023-04-01T04:24:45;37.57;;;26.17;;
17570;SDS011;8903;52.220;20.978;2023-04-01T04:27:12;28.90;;;23.77;;
17570;SDS011;8903;52.220;20.978;2023-04-01T04:30:06;33.20;;;24.73;;
17570;SDS011;8903;52.220;20.978;2023-04-01T04:32:35;28.57;;;21.60;;
17570;SDS011;8903;52.220;20.978;2023-04-01T04:35:03;27.90;;;21.57;;
17570;SDS011;8903;52.220;20.978;2023-04-01T04:37:33;33.27;;;22.93;;
17570;SDS011;8903;52.220;20.978;2023-04-01T04:40:00;26.07;;;20.43;;
17570;SDS011;8903;52.220;20.978;2023-04-01T04:42:28;30.60;;;21.93;;
17570;SDS011;8903;52.220;20.978;2023-04-01T04:45:02;22.77;;;18.40;;
17570;SDS011;8903;52.220;20.978;2023-04-01T04:47:29;24.00;;;18.97;;
17570;SDS011;8903;52.220;20.978;2023-04-01T04:49:57;20.93;;;16.73;;
17570;SDS011;8903;52.220;20.978;2023-04-01T04:52:24;23.03;;;17.00;;
17570;SDS011;8903;52.220;20.978;2023-04-01T04:54:52;20.50;;;17.03;;
17570;SDS011;8903;52.220;20.978;2023-04-01T04:57:19;19.33;;;15.67;;
17570;SDS011;8903;52.220;20.978;2023-04-01T04:59:53;20.90;;;16.30;;
17570;SDS011;8903;52.220;20.978;2023-04-01T05:02:35;21.80;;;16.33;;
17570;SDS011;8903;52.220;20.978;2023-04-01T05:05:03;17.70;;;15.80;;
17570;SDS011;8903;52.220;20.978;2023-04-01T05:07:30;17.73;;;13.87;;
17570;SDS011;8903;52.220;20.978;2023-04-01T05:10:00;22.77;;;15.60;;
17570;SDS011;8903;52.220;20.978;2023-04-01T05:12:27;21.83;;;15.40;;
17570;SDS011;8903;52.220;20.978;2023-04-01T05:14:57;18.00;;;14.40;;
17570;SDS011;8903;52.220;20.978;2023-04-01T05:17:24;19.67;;;14.33;;
17570;SDS011;8903;52.220;20.978;2023-04-01T05:19:52;18.60;;;14.40;;
17570;SDS011;8903;52.220;20.978;2023-04-01T05:22:19;20.33;;;15.83;;
17570;SDS011;8903;52.220;20.978;2023-04-01T05:24:47;16.07;;;12.83;;
17570;SDS011;8903;52.220;20.978;2023-04-01T05:27:15;17.17;;;12.57;;
17570;SDS011;8903;52.220;20.978;2023-04-01T05:29:43;18.67;;;14.57;;
17570;SDS011;8903;52.220;20.978;2023-04-01T05:32:28;19.33;;;14.03;;
17570;SDS011;8903;52.220;20.978;2023-04-01T05:34:58;17.40;;;13.93;;
17570;SDS011;8903;52.220;20.978;2023-04-01T05:37:25;18.40;;;13.83;;
17570;SDS011;8903;52.220;20.978;2023-04-01T05:39:52;18.40;;;13.27;;
17570;SDS011;8903;52.220;20.978;2023-04-01T05:42:21;18.27;;;13.17;;
17570;SDS011;8903;52.220;20.978;2023-04-01T05:44:48;16.20;;;13.80;;
17570;SDS011;8903;52.220;20.978;2023-04-01T05:47:34;16.20;;;13.00;;
17570;SDS011;8903;52.220;20.978;2023-04-01T05:50:01;15.83;;;12.47;;
17570;SDS011;8903;52.220;20.978;2023-04-01T05:52:28;15.07;;;11.63;;
17570;SDS011;8903;52.220;20.978;2023-04-01T05:54:55;17.70;;;12.90;;
17570;SDS011;8903;52.220;20.978;2023-04-01T05:57:23;13.63;;;11.17;;
17570;SDS011;8903;52.220;20.978;2023-04-01T05:59:50;14.97;;;12.20;;
17570;SDS011;8903;52.220;20.978;2023-04-01T06:02:17;14.30;;;11.80;;
17570;SDS011;8903;52.220;20.978;2023-04-01T06:04:44;16.93;;;10.90;;
17570;SDS011;8903;52.220;20.978;2023-04-01T06:07:12;13.47;;;11.03;;
17570;SDS011;8903;52.220;20.978;2023-04-01T06:09:40;13.37;;;11.20;;
17570;SDS011;8903;52.220;20.978;2023-04-01T06:12:20;13.07;;;11.27;;
17570;SDS011;8903;52.220;20.978;2023-04-01T06:15:15;16.83;;;12.03;;
17570;SDS011;8903;52.220;20.978;2023-04-01T06:17:56;16.10;;;13.07;;
17570;SDS011;8903;52.220;20.978;2023-04-01T06:20:37;14.70;;;12.77;;
17570;SDS011;8903;52.220;20.978;2023-04-01T06:23:10;15.80;;;12.23;;
17570;SDS011;8903;52.220;20.978;2023-04-01T06:25:48;15.60;;;13.00;;
17570;SDS011;8903;52.220;20.978;2023-04-01T06:31:16;20.43;;;15.27;;
17570;SDS011;8903;52.220;20.978;2023-04-01T06:33:58;19.80;;;15.30;;
17570;SDS011;8903;52.220;20.978;2023-04-01T06:36:51;21.17;;;16.90;;
17570;SDS011;8903;52.220;20.978;2023-04-01T06:39:35;27.93;;;18.00;;
17570;SDS011;8903;52.220;20.978;2023-04-01T06:42:19;23.17;;;18.40;;
17570;SDS011;8903;52.220;20.978;2023-04-01T06:45:10;22.77;;;18.80;;
17570;SDS011;8903;52.220;20.978;2023-04-01T06:48:08;24.57;;;19.20;;
17570;SDS011;8903;52.220;20.978;2023-04-01T06:51:08;21.83;;;17.47;;
17570;SDS011;8903;52.220;20.978;2023-04-01T06:54:07;21.80;;;17.67;;
17570;SDS011;8903;52.220;20.978;2023-04-01T06:57:05;21.80;;;17.40;;
17570;SDS011;8903;52.220;20.978;2023-04-01T06:59:40;21.27;;;17.10;;
17570;SDS011;8903;52.220;20.978;2023-04-01T07:02:15;19.47;;;16.80;;
17570;SDS011;8903;52.220;20.978;2023-04-01T07:04:48;21.17;;;16.27;;
17570;SDS011;8903;52.220;20.978;2023-04-01T07:07:19;17.17;;;14.00;;
17570;SDS011;8903;52.220;20.978;2023-04-01T07:09:58;16.67;;;13.60;;
17570;SDS011;8903;52.220;20.978;2023-04-01T07:12:32;18.57;;;14.87;;
17570;SDS011;8903;52.220;20.978;2023-04-01T07:15:26;18.00;;;15.80;;
17570;SDS011;8903;52.220;20.978;2023-04-01T07:18:00;18.40;;;16.17;;
17570;SDS011;8903;52.220;20.978;2023-04-01T07:20:32;21.67;;;19.33;;
17570;SDS011;8903;52.220;20.978;2023-04-01T07:23:04;26.00;;;22.00;;
17570;SDS011;8903;52.220;20.978;2023-04-01T07:25:44;27.50;;;22.10;;
17570;SDS011;8903;52.220;20.978;2023-04-01T07:28:50;28.20;;;22.63;;
17570;SDS011;8903;52.220;20.978;2023-04-01T07:31:45;32.13;;;24.30;;
17570;SDS011;8903;52.220;20.978;2023-04-01T07:34:43;34.50;;;25.70;;
17570;SDS011;8903;52.220;20.978;2023-04-01T07:37:21;32.43;;;25.13;;
17570;SDS011;8903;52.220;20.978;2023-04-01T07:39:56;28.83;;;24.57;;
17570;SDS011;8903;52.220;20.978;2023-04-01T07:42:40;29.30;;;24.30;;
17570;SDS011;8903;52.220;20.978;2023-04-01T07:45:17;33.30;;;25.20;;
17570;SDS011;8903;52.220;20.978;2023-04-01T07:47:55;31.57;;;25.57;;
17570;SDS011;8903;52.220;20.978;2023-04-01T07:50:44;36.43;;;26.17;;
17570;SDS011;8903;52.220;20.978;2023-04-01T07:53:18;33.33;;;25.80;;
17570;SDS011;8903;52.220;20.978;2023-04-01T07:55:54;32.63;;;25.53;;
17570;SDS011;8903;52.220;20.978;2023-04-01T07:58:32;32.47;;;26.50;;
17570;SDS011;8903;52.220;20.978;2023-04-01T08:01:13;31.70;;;24.20;;
17570;SDS011;8903;52.220;20.978;2023-04-01T08:03:53;29.37;;;23.10;;
17570;SDS011;8903;52.220;20.978;2023-04-01T08:06:36;27.40;;;21.23;;
17570;SDS011;8903;52.220;20.978;2023-04-01T08:09:12;26.30;;;21.17;;
17570;SDS011;8903;52.220;20.978;2023-04-01T08:12:10;23.03;;;19.93;;
17570;SDS011;8903;52.220;20.978;2023-04-01T08:15:17;21.87;;;18.43;;
17570;SDS011;8903;52.220;20.978;2023-04-01T08:17:59;23.67;;;19.50;;
17570;SDS011;8903;52.220;20.978;2023-04-01T08:20:40;20.47;;;17.73;;
17570;SDS011;8903;52.220;20.978;2023-04-01T08:23:14;22.60;;;18.97;;
17570;SDS011;8903;52.220;20.978;2023-04-01T08:25:44;27.87;;;18.67;;
17570;SDS011;8903;52.220;20.978;2023-04-01T08:28:20;22.07;;;17.30;;
17570;SDS011;8903;52.220;20.978;2023-04-01T08:30:52;24.07;;;18.80;;
17570;SDS011;8903;52.220;20.978;2023-04-01T08:33:24;23.43;;;19.60;;
17570;SDS011;8903;52.220;20.978;2023-04-01T08:36:03;34.57;;;22.60;;
17570;SDS011;8903;52.220;20.978;2023-04-01T08:38:37;22.80;;;17.83;;
17570;SDS011;8903;52.220;20.978;2023-04-01T08:41:10;16.90;;;15.07;;
17570;SDS011;8903;52.220;20.978;2023-04-01T08:44:26;14.83;;;11.93;;
17570;SDS011;8903;52.220;20.978;2023-04-01T08:47:34;16.90;;;13.90;;
17570;SDS011;8903;52.220;20.978;2023-04-01T08:50:20;13.20;;;11.17;;
17570;SDS011;8903;52.220;20.978;2023-04-01T08:53:21;12.40;;;11.20;;
17570;SDS011;8903;52.220;20.978;2023-04-01T08:56:03;10.50;;;8.57;;
17570;SDS011;8903;52.220;20.978;2023-04-01T09:01:42;10.03;;;9.00;;
17570;SDS011;8903;52.220;20.978;2023-04-01T09:04:51;11.43;;;8.73;;
17570;SDS011;8903;52.220;20.978;2023-04-01T09:07:43;11.20;;;8.10;;
17570;SDS011;8903;52.220;20.978;2023-04-01T09:10:28;11.23;;;9.63;;
17570;SDS011;8903;52.220;20.978;2023-04-01T09:16:30;14.03;;;12.00;;
17570;SDS011;8903;52.220;20.978;2023-04-01T09:19:24;17.03;;;11.10;;
17570;SDS011;8903;52.220;20.978;2023-04-01T09:22:05;15.47;;;11.87;;
17570;SDS011;8903;52.220;20.978;2023-04-01T09:25:06;14.37;;;12.00;;
17570;SDS011;8903;52.220;20.978;2023-04-01T09:27:48;13.50;;;12.10;;
17570;SDS011;8903;52.220;20.978;2023-04-01T09:30:33;11.97;;;10.30;;
17570;SDS011;8903;52.220;20.978;2023-04-01T09:36:45;6.57;;;5.90;;
17570;SDS011;8903;52.220;20.978;2023-04-01T09:39:24;5.90;;;5.30;;
17570;SDS011;8903;52.220;20.978;2023-04-01T09:42:06;6.23;;;4.17;;
17570;SDS011;8903;52.220;20.978;2023-04-01T09:44:57;4.93;;;4.43;;
17570;SDS011;8903;52.220;20.978;2023-04-01T09:47:33;9.80;;;5.67;;
17570;SDS011;8903;52.220;20.978;2023-04-01T09:50:33;4.90;;;3.70;;
17570;SDS011;8903;52.220;20.978;2023-04-01T09:56:13;6.90;;;5.60;;
17570;SDS011;8903;52.220;20.978;2023-04-01T09:59:01;7.00;;;6.30;;
17570;SDS011;8903;52.220;20.978;2023-04-01T10:05:27;7.50;;;6.80;;
17570;SDS011;8903;52.220;20.978;2023-04-01T10:08:18;6.50;;;5.90;;
17570;SDS011;8903;52.220;20.978;2023-04-01T10:11:15;9.07;;;5.77;;
17570;SDS011;8903;52.220;20.978;2023-04-01T10:20:46;7.77;;;6.90;;
17570;SDS011;8903;52.220;20.978;2023-04-01T10:23:39;5.40;;;4.40;;
17570;SDS011;8903;52.220;20.978;2023-04-01T10:26:25;8.20;;;5.80;;
17570;SDS011;8903;52.220;20.978;2023-04-01T10:36:26;8.33;;;5.90;;
17570;SDS011;8903;52.220;20.978;2023-04-01T10:39:33;5.60;;;5.00;;
17570;SDS011;8903;52.220;20.978;2023-04-01T10:49:21;5.57;;;5.07;;
17570;SDS011;8903;52.220;20.978;2023-04-01T10:56:02;5.70;;;5.10;;
17570;SDS011;8903;52.220;20.978;2023-04-01T11:05:40;5.70;;;4.87;;
17570;SDS011;8903;52.220;20.978;2023-04-01T11:11:46;5.93;;;5.10;;
17570;SDS011;8903;52.220;20.978;2023-04-01T11:14:39;5.27;;;4.77;;
17570;SDS011;8903;52.220;20.978;2023-04-01T11:20:32;5.67;;;5.17;;
17570;SDS011;8903;52.220;20.978;2023-04-01T11:23:37;7.40;;;5.93;;
17570;SDS011;8903;52.220;20.978;2023-04-01T11:26:23;8.33;;;6.97;;
17570;SDS011;8903;52.220;20.978;2023-04-01T11:29:38;7.23;;;5.40;;
17570;SDS011;8903;52.220;20.978;2023-04-01T11:32:26;7.60;;;6.23;;
17570;SDS011;8903;52.220;20.978;2023-04-01T11:35:20;6.80;;;6.13;;
17570;SDS011;8903;52.220;20.978;2023-04-01T11:38:02;8.70;;;7.30;;
17570;SDS011;8903;52.220;20.978;2023-04-01T11:40:45;8.00;;;7.10;;
17570;SDS011;8903;52.220;20.978;2023-04-01T11:43:37;8.50;;;7.60;;
17570;SDS011;8903;52.220;20.978;2023-04-01T11:46:39;8.80;;;7.90;;
17570;SDS011;8903;52.220;20.978;2023-04-01T11:49:24;7.63;;;6.83;;
17570;SDS011;8903;52.220;20.978;2023-04-01T11:55:16;9.13;;;8.23;;
17570;SDS011;8903;52.220;20.978;2023-04-01T11:57:53;5.03;;;4.53;;
17570;SDS011;8903;52.220;20.978;2023-04-01T12:00:35;4.40;;;4.00;;
17570;SDS011;8903;52.220;20.978;2023-04-01T12:06:30;6.40;;;3.90;;
17570;SDS011;8903;52.220;20.978;2023-04-01T12:09:07;4.03;;;3.70;;
17570;SDS011;8903;52.220;20.978;2023-04-01T12:11:41;4.00;;;2.70;;
17570;SDS011;8903;52.220;20.978;2023-04-01T12:14:16;2.57;;;2.37;;
17570;SDS011;8903;52.220;20.978;2023-04-01T12:16:51;2.70;;;2.50;;
17570;SDS011;8903;52.220;20.978;2023-04-01T12:19:29;2.77;;;2.57;;
17570;SDS011;8903;52.220;20.978;2023-04-01T12:22:16;1.77;;;1.67;;
17570;SDS011;8903;52.220;20.978;2023-04-01T12:24:53;3.00;;;2.70;;
17570;SDS011;8903;52.220;20.978;2023-04-01T12:27:29;3.77;;;2.90;;
17570;SDS011;8903;52.220;20.978;2023-04-01T12:33:22;4.90;;;4.50;;
17570;SDS011;8903;52.220;20.978;2023-04-01T12:36:01;9.80;;;5.30;;
17570;SDS011;8903;52.220;20.978;2023-04-01T12:38:42;6.33;;;5.47;;
17570;SDS011;8903;52.220;20.978;2023-04-01T12:41:21;7.30;;;5.80;;
17570;SDS011;8903;52.220;20.978;2023-04-01T12:44:06;4.33;;;3.93;;
17570;SDS011;8903;52.220;20.978;2023-04-01T12:46:51;5.03;;;4.53;;
17570;SDS011;8903;52.220;20.978;2023-04-01T12:52:38;5.13;;;4.60;;
17570;SDS011;8903;52.220;20.978;2023-04-01T12:58:15;6.33;;;4.83;;
17570;SDS011;8903;52.220;20.978;2023-04-01T13:07:23;5.67;;;5.27;;
17570;SDS011;8903;52.220;20.978;2023-04-01T13:10:11;4.93;;;4.50;;
17570;SDS011;8903;52.220;20.978;2023-04-01T13:12:58;5.47;;;4.70;;
17570;SDS011;8903;52.220;20.978;2023-04-01T13:15:35;5.90;;;4.63;;
17570;SDS011;8903;52.220;20.978;2023-04-01T13:18:11;6.10;;;5.27;;
17570;SDS011;8903;52.220;20.978;2023-04-01T13:20:49;6.20;;;4.93;;
17570;SDS011;8903;52.220;20.978;2023-04-01T13:23:34;3.80;;;3.50;;
17570;SDS011;8903;52.220;20.978;2023-04-01T13:26:13;4.03;;;3.50;;
17570;SDS011;8903;52.220;20.978;2023-04-01T13:28:47;3.60;;;3.30;;
17570;SDS011;8903;52.220;20.978;2023-04-01T13:31:24;3.43;;;3.13;;
17570;SDS011;8903;52.220;20.978;2023-04-01T13:34:01;3.80;;;3.50;;
17570;SDS011;8903;52.220;20.978;2023-04-01T13:36:41;5.00;;;4.50;;
17570;SDS011;8903;52.220;20.978;2023-04-01T13:39:26;4.03;;;3.63;;
17570;SDS011;8903;52.220;20.978;2023-04-01T13:42:10;4.57;;;4.23;;
17570;SDS011;8903;52.220;20.978;2023-04-01T13:44:43;4.50;;;4.10;;
17570;SDS011;8903;52.220;20.978;2023-04-01T13:47:22;5.87;;;4.40;;
17570;SDS011;8903;52.220;20.978;2023-04-01T13:55:56;6.23;;;5.63;;
17570;SDS011;8903;52.220;20.978;2023-04-01T13:58:39;8.10;;;6.57;;
17570;SDS011;8903;52.220;20.978;2023-04-01T14:01:27;8.60;;;6.47;;
17570;SDS011;8903;52.220;20.978;2023-04-01T14:04:11;6.57;;;4.47;;
17570;SDS011;8903;52.220;20.978;2023-04-01T14:07:08;7.30;;;5.87;;
17570;SDS011;8903;52.220;20.978;2023-04-01T14:09:48;6.10;;;5.50;;
17570;SDS011;8903;52.220;20.978;2023-04-01T14:12:29;4.50;;;4.10;;
17570;SDS011;8903;52.220;20.978;2023-04-01T14:17:59;3.87;;;3.57;;
17570;SDS011;8903;52.220;20.978;2023-04-01T14:20:40;4.43;;;3.63;;
17570;SDS011;8903;52.220;20.978;2023-04-01T14:23:36;4.60;;;4.20;;
17570;SDS011;8903;52.220;20.978;2023-04-01T14:26:43;4.77;;;4.37;;
17570;SDS011;8903;52.220;20.978;2023-04-01T14:29:32;4.43;;;4.03;;
17570;SDS011;8903;52.220;20.978;2023-04-01T14:32:06;2.67;;;2.47;;
17570;SDS011;8903;52.220;20.978;2023-04-01T14:34:51;2.07;;;1.93;;
17570;SDS011;8903;52.220;20.978;2023-04-01T14:37:31;2.20;;;1.80;;
17570;SDS011;8903;52.220;20.978;2023-04-01T14:40:22;2.50;;;2.30;;
17570;SDS011;8903;52.220;20.978;2023-04-01T14:46:02;1.70;;;1.60;;
17570;SDS011;8903;52.220;20.978;2023-04-01T14:48:56;2.80;;;1.60;;
17570;SDS011;8903;52.220;20.978;2023-04-01T14:51:28;2.70;;;2.50;;
17570;SDS011;8903;52.220;20.978;2023-04-01T14:54:00;2.53;;;2.33;;
17570;SDS011;8903;52.220;20.978;2023-04-01T14:56:38;2.43;;;2.23;;
17570;SDS011;8903;52.220;20.978;2023-04-01T14:59:08;2.13;;;1.93;;
17570;SDS011;8903;52.220;20.978;2023-04-01T15:01:43;2.37;;;2.20;;
17570;SDS011;8903;52.220;20.978;2023-04-01T15:04:22;2.73;;;2.53;;
17570;SDS011;8903;52.220;20.978;2023-04-01T15:07:15;3.27;;;2.80;;
17570;SDS011;8903;52.220;20.978;2023-04-01T15:09:59;3.53;;;3.23;;
17570;SDS011;8903;52.220;20.978;2023-04-01T15:12:34;3.37;;;3.17;;
17570;SDS011;8903;52.220;20.978;2023-04-01T15:15:13;3.20;;;2.90;;
17570;SDS011;8903;52.220;20.978;2023-04-01T15:20:50;3.47;;;3.17;;
17570;SDS011;8903;52.220;20.978;2023-04-01T15:23:46;3.27;;;2.97;;
17570;SDS011;8903;52.220;20.978;2023-04-01T15:26:31;3.20;;;2.90;;
17570;SDS011;8903;52.220;20.978;2023-04-01T15:29:24;3.57;;;3.27;;
17570;SDS011;8903;52.220;20.978;2023-04-01T15:32:04;3.77;;;3.43;;
17570;SDS011;8903;52.220;20.978;2023-04-01T15:34:45;4.90;;;4.07;;
17570;SDS011;8903;52.220;20.978;2023-04-01T15:37:26;4.73;;;4.33;;
17570;SDS011;8903;52.220;20.978;2023-04-01T15:40:03;8.37;;;7.57;;
17570;SDS011;8903;52.220;20.978;2023-04-01T15:42:46;8.67;;;7.77;;
17570;SDS011;8903;52.220;20.978;2023-04-01T15:45:26;11.13;;;8.57;;
17570;SDS011;8903;52.220;20.978;2023-04-01T15:48:01;10.90;;;9.80;;
17570;SDS011;8903;52.220;20.978;2023-04-01T15:50:48;12.50;;;10.00;;
17570;SDS011;8903;52.220;20.978;2023-04-01T15:53:30;9.40;;;8.50;;
17570;SDS011;8903;52.220;20.978;2023-04-01T15:56:19;9.77;;;8.77;;
17570;SDS011;8903;52.220;20.978;2023-04-01T15:58:54;9.70;;;7.50;;
17570;SDS011;8903;52.220;20.978;2023-04-01T16:01:34;7.07;;;5.70;;
17570;SDS011;8903;52.220;20.978;2023-04-01T16:07:10;8.07;;;6.00;;
17570;SDS011;8903;52.220;20.978;2023-04-01T16:09:50;5.50;;;5.00;;
17570;SDS011;8903;52.220;20.978;2023-04-01T16:12:31;6.70;;;5.10;;
17570;SDS011;8903;52.220;20.978;2023-04-01T16:15:10;6.20;;;5.70;;
17570;SDS011;8903;52.220;20.978;2023-04-01T16:17:48;6.00;;;5.47;;
17570;SDS011;8903;52.220;20.978;2023-04-01T16:20:25;6.67;;;5.97;;
17570;SDS011;8903;52.220;20.978;2023-04-01T16:23:12;7.57;;;5.10;;
17570;SDS011;8903;52.220;20.978;2023-04-01T16:25:46;3.93;;;3.43;;
17570;SDS011;8903;52.220;20.978;2023-04-01T16:28:21;3.80;;;3.47;;
17570;SDS011;8903;52.220;20.978;2023-04-01T16:34:01;4.23;;;3.90;;
17570;SDS011;8903;52.220;20.978;2023-04-01T16:36:35;4.00;;;3.60;;
17570;SDS011;8903;52.220;20.978;2023-04-01T16:42:07;2.70;;;2.50;;
17570;SDS011;8903;52.220;20.978;2023-04-01T16:44:44;7.30;;;2.93;;
17570;SDS011;8903;52.220;20.978;2023-04-01T16:47:45;2.07;;;1.97;;
17570;SDS011;8903;52.220;20.978;2023-04-01T16:50:16;1.90;;;1.80;;
17570;SDS011;8903;52.220;20.978;2023-04-01T16:52:51;2.87;;;1.93;;
17570;SDS011;8903;52.220;20.978;2023-04-01T16:55:33;2.07;;;1.87;;
17570;SDS011;8903;52.220;20.978;2023-04-01T16:58:02;1.73;;;1.57;;
17570;SDS011;8903;52.220;20.978;2023-04-01T17:00:30;1.50;;;1.40;;
17570;SDS011;8903;52.220;20.978;2023-04-01T17:03:08;1.70;;;1.50;;
17570;SDS011;8903;52.220;20.978;2023-04-01T17:05:49;3.40;;;2.30;;
17570;SDS011;8903;52.220;20.978;2023-04-01T17:08:28;2.10;;;2.00;;
17570;SDS011;8903;52.220;20.978;2023-04-01T17:11:05;2.80;;;1.83;;
17570;SDS011;8903;52.220;20.978;2023-04-01T17:13:44;2.20;;;1.90;;
17570;SDS011;8903;52.220;20.978;2023-04-01T17:16:28;2.60;;;2.40;;